Time;durP1;ratioP1;P1;durP2;ratioP2;P2;SDS_P1;SDS_P2;PMS_P1;PMS_P2;Temp;Humidity;BMP_temperature;BMP_pressure;BME280_temperature;BME280_humidity;BME280_pressure;Samples;Min_cycle;Max_cycle;Signal;HPM_P1;HPM_P2
2022/06/28 00:00:04;;;;;;;6.15;5.25;;;;;;;25.26;65.34;101190.81;5034724;28;20035;-85
2022/06/28 00:02:30;;;;;;;5.70;5.10;;;;;;;25.18;65.25;101176.50;5015542;28;20040;-85
2022/06/28 00:04:55;;;;;;;;;;;;;;;25.29;65.08;101188.13;5052785;28;20108;-86
2022/06/28 00:07:21;;;;;;;8.18;4.97;;;;;;;25.23;65.13;101172.13;5033206;28;20379;-86
2022/06/28 00:09:46;;;;;;;;;;;;;;;25.33;65.30;101187.22;5034529;28;20194;-86
2022/06/28 00:12:12;;;;;;;5.63;5.05;;;;;;;25.17;65.37;101164.06;5033412;28;20405;-86
2022/06/28 00:17:21;;;;;;;5.30;4.78;;;;;;;25.21;65.38;101181.00;5029404;28;19920;-85
2022/06/28 00:19:47;;;;;;;;;;;;;;;25.37;64.91;101196.16;5040959;28;20025;-85
2022/06/28 00:22:13;;;;;;;5.68;4.75;;;;;;;25.26;64.94;101200.63;5062443;28;19913;-88
2022/06/28 00:24:38;;;;;;;;;;;;;;;25.37;64.94;101193.47;5061957;28;20080;-85
2022/06/28 00:27:04;;;;;;;5.30;4.80;;;;;;;25.23;65.01;101184.56;5057308;28;19987;-86
2022/06/28 00:29:29;;;;;;;;;;;;;;;25.36;65.16;101200.63;5035156;28;20483;-86
2022/06/28 00:31:55;;;;;;;6.13;4.88;;;;;;;25.15;64.61;101165.84;5036155;28;19916;-86
2022/06/28 00:34:20;;;;;;;;;;;;;;;25.34;64.97;101199.72;5032835;28;20458;-86
2022/06/28 00:36:46;;;;;;;8.20;5.07;;;;;;;25.26;64.59;101185.47;5033778;28;19955;-85
2022/06/28 00:39:12;;;;;;;;;;;;;;;25.32;64.57;101196.16;5053892;28;20033;-85
2022/06/28 00:41:38;;;;;;;5.35;4.85;;;;;;;25.27;65.31;101184.56;5033321;28;19947;-86
2022/06/28 00:44:04;;;;;;;;;;;;;;;25.35;64.90;101187.25;5052539;28;20095;-87
2022/06/28 00:46:33;;;;;;;5.90;5.22;;;;;;;25.25;64.63;101185.44;5021688;28;19908;-86
2022/06/28 00:49:00;;;;;;;5.40;4.90;;;;;;;25.09;64.92;101144.44;5033111;28;20016;-86
2022/06/28 00:51:26;;;;;;;8.23;5.03;;;;;;;25.19;65.00;101164.94;5033082;28;20480;-87
2022/06/28 00:53:52;;;;;;;;;;;;;;;25.36;64.76;101187.25;5053451;28;20086;-87
2022/06/28 00:56:17;;;;;;;5.35;4.75;;;;;;;25.33;64.93;101187.22;5017269;28;19959;-86
2022/06/28 00:58:43;;;;;;;;;;;;;;;25.36;65.01;101191.72;5033562;28;20507;-86
2022/06/28 01:01:08;;;;;;;5.75;4.90;;;;;;;25.20;64.71;101164.06;5051573;28;19924;-87
2022/06/28 01:03:34;;;;;;;;;;;;;;;25.31;64.41;101189.00;5052359;28;20021;-86
2022/06/28 01:05:59;;;;;;;6.47;4.68;;;;;;;25.20;64.76;101177.44;5052243;28;20433;-87
2022/06/28 01:08:25;;;;;;;6.63;5.20;;;;;;;24.98;65.05;101128.41;5033829;28;20044;-87
2022/06/28 01:10:51;;;;;;;;;;;;;;;25.36;65.07;101186.38;5051270;28;20016;-86
2022/06/28 01:13:17;;;;;;;6.95;4.97;;;;;;;25.04;64.84;101130.19;5016651;28;19914;-86
2022/06/28 01:15:42;;;;;;;;;;;;;;;25.34;64.53;101186.34;5018158;28;20134;-86
2022/06/28 01:18:09;;;;;;;5.88;5.22;;;;;;;25.14;64.54;101145.31;5031627;28;19995;-86
2022/06/28 01:20:36;;;;;;;5.25;4.85;;;;;;;25.25;65.36;101178.34;5032393;28;20035;-85
2022/06/28 01:23:02;;;;;;;5.78;5.20;;;;;;;25.21;64.80;101159.59;5051638;28;20052;-85
2022/06/28 01:25:27;;;;;;;;;;;;;;;25.38;64.79;101176.56;5033770;28;20041;-87
2022/06/28 01:27:54;;;;;;;5.88;4.80;;;;;;;25.30;64.83;101187.25;5015698;28;20288;-86
2022/06/28 01:30:20;;;;;;;5.38;4.70;;;;;;;25.23;64.87;101180.13;5032549;28;20032;-87
2022/06/28 01:32:45;;;;;;;;;;;;;;;25.36;64.91;101192.59;5032196;28;20021;-86
2022/06/28 01:35:11;;;;;;;5.22;4.70;;;;;;;25.07;64.75;101160.47;5033425;28;19939;-86
2022/06/28 01:37:37;;;;;;;;;;;;;;;25.33;64.88;101192.56;5020810;28;20485;-86
2022/06/28 01:40:04;;;;;;;5.30;4.80;;;;;;;25.28;64.93;101198.84;5033756;28;19938;-86
2022/06/28 01:42:30;;;;;;;5.82;4.80;;;;;;;25.02;65.13;101145.31;5033543;28;20028;-86
2022/06/28 01:44:57;;;;;;;8.88;5.20;;;;;;;25.14;64.54;101156.91;5029689;28;20381;-86
2022/06/28 01:47:25;;;;;;;5.72;5.13;;;;;;;25.04;64.90;101147.13;4998396;28;20500;-86
2022/06/28 01:49:51;;;;;;;5.60;5.00;;;;;;;25.24;64.54;101176.56;5032402;28;20162;-86
2022/06/28 01:52:17;;;;;;;5.55;4.97;;;;;;;25.06;64.97;101144.44;5012127;28;20059;-86
2022/06/28 01:54:43;;;;;;;;;;;;;;;25.33;64.47;101175.66;5013614;28;20029;-86
2022/06/28 01:57:09;;;;;;;6.32;5.10;;;;;;;25.22;64.87;101169.44;5033559;28;19913;-84
2022/06/28 01:59:35;;;;;;;;;;;;;;;25.32;64.66;101185.47;5033254;28;20480;-86
2022/06/28 02:02:01;;;;;;;7.43;5.40;;;;;;;25.24;64.84;101175.66;5038928;28;19917;-86
2022/06/28 02:04:27;;;;;;;;;;;;;;;25.35;64.38;101189.91;5031224;28;20032;-86
2022/06/28 02:06:54;;;;;;;5.22;4.72;;;;;;;25.28;64.71;101194.38;5031747;28;19919;-86
2022/06/28 02:09:19;;;;;;;5.35;4.45;;;;;;;25.06;64.87;101152.44;5049270;28;20025;-86
2022/06/28 02:11:45;;;;;;;;;;;;;;;25.34;64.62;101190.81;5022353;28;20024;-86
2022/06/28 02:14:11;;;;;;;5.30;4.72;;;;;;;25.11;65.10;101154.25;5033490;28;19917;-86
2022/06/28 02:16:36;;;;;;;;;;;;;;;25.32;64.76;101179.22;5028473;28;20052;-87
2022/06/28 02:19:03;;;;;;;7.30;4.60;;;;;;;25.23;64.50;101172.13;5030045;28;20301;-87
2022/06/28 02:21:30;;;;;;;5.80;5.20;;;;;;;25.26;64.55;101173.88;5028494;28;20061;-86
2022/06/28 02:23:55;;;;;;;5.78;5.05;;;;;;;24.96;64.76;101141.75;5003444;28;20562;-86
2022/06/28 02:26:21;;;;;;;;;;;;;;;25.27;64.30;101184.56;5048252;28;20029;-86
2022/06/28 02:28:47;;;;;;;5.72;4.70;;;;;;;25.08;64.82;101156.00;5046869;28;20402;-85
2022/06/28 02:31:13;;;;;;;;;;;;;;;25.24;64.55;101191.69;5050517;28;20059;-86
2022/06/28 02:33:40;;;;;;;9.18;4.85;;;;;;;25.25;64.21;101186.38;5027522;28;19912;-86
2022/06/28 02:41:55;;;;;;;7.47;4.80;;;;;;;25.26;64.17;101181.91;4992205;28;20026;-85
2022/06/28 02:44:20;;;;;;;;;;;;;;;25.29;64.63;101192.59;4992619;28;20136;-86
2022/06/28 02:46:46;;;;;;;6.15;5.30;;;;;;;25.05;64.80;101158.69;5012006;28;20333;-85
2022/06/28 02:49:13;;;;;;;;;;;;;;;25.27;64.91;101184.56;5045987;28;20158;-86
2022/06/28 02:51:40;;;;;;;5.68;4.88;;;;;;;24.94;65.00;101134.66;5046987;28;19919;-86
2022/06/28 02:54:06;;;;;;;5.90;5.05;;;;;;;24.87;64.83;101127.50;5013433;28;20041;-85
2022/06/28 02:56:31;;;;;;;;;;;;;;;25.29;64.47;101201.47;5043462;28;20056;-85
2022/06/28 02:58:57;;;;;;;7.30;5.00;;;;;;;24.92;63.91;101139.09;5050434;28;19909;-86
2022/06/28 03:01:22;;;;;;;;;;;;;;;25.31;64.60;101205.06;5031558;28;20021;-85
2022/06/28 03:03:48;;;;;;;5.55;4.88;;;;;;;25.15;64.24;101176.53;5050197;28;19912;-86
2022/06/28 03:06:13;;;;;;;;;;;;;;;25.28;64.21;101201.50;5049897;28;20447;-86
2022/06/28 03:08:39;;;;;;;5.25;4.70;;;;;;;24.81;64.52;101135.50;5048844;28;19912;-85
2022/06/28 03:11:04;;;;;;;;;;;;;;;25.31;64.35;101223.75;5030792;28;20021;-85
2022/06/28 03:13:30;;;;;;;5.07;4.57;;;;;;;25.27;64.36;101213.97;5048708;28;20592;-86
2022/06/28 03:15:55;;;;;;;;;;;;;;;25.30;64.41;101211.31;5047711;28;20094;-86
2022/06/28 03:18:21;;;;;;;5.40;4.90;;;;;;;25.09;64.74;101195.22;5043546;28;20353;-86
2022/06/28 03:20:46;;;;;;;;;;;;;;;25.25;64.61;101220.19;5029112;28;20047;-86
2022/06/28 03:23:12;;;;;;;6.07;4.68;;;;;;;24.96;64.38;101180.97;5048361;28;19919;-87
2022/06/28 03:25:37;;;;;;;;;;;;;;;25.25;64.36;101231.81;5005405;28;20057;-87
2022/06/28 03:28:04;;;;;;;5.30;4.80;;;;;;;25.25;64.68;101239.84;5047279;28;20007;-86
2022/06/28 03:30:33;;;;;;;5.40;4.90;;;;;;;25.13;64.80;101231.75;5031126;28;20020;-86
2022/06/28 03:32:58;;;;;;;5.30;4.80;;;;;;;25.12;64.75;101238.84;5031651;28;20032;-87
2022/06/28 03:35:24;;;;;;;;;;;;;;;24.98;64.95;101256.69;5033154;28;20095;-87
2022/06/28 03:37:50;;;;;;;7.25;4.70;;;;;;;24.88;64.56;101245.06;5032191;28;19912;-86
2022/06/28 03:40:15;;;;;;;;;;;;;;;24.87;65.22;101270.00;5031918;28;20025;-86
2022/06/28 03:42:50;;;;;;;5.53;4.93;;;;;;;24.92;64.95;101265.56;5048883;28;19917;-86
2022/06/28 03:45:28;;;;;;;5.55;5.05;;;;;;;24.92;64.54;101249.53;5036103;28;20052;-86
2022/06/28 03:47:53;;;;;;;5.90;4.82;;;;;;;25.13;64.54;101267.38;5047230;28;20039;-85
2022/06/28 03:50:19;;;;;;;;;;;;;;;25.09;64.33;101278.06;5050892;28;20032;-85
2022/06/28 03:52:44;;;;;;;5.30;4.65;;;;;;;25.10;64.48;101286.06;5046195;28;19970;-85
2022/06/28 03:55:11;;;;;;;;;;;;;;;25.07;64.37;101280.72;5037907;28;20029;-86
2022/06/28 03:57:36;;;;;;;5.60;4.70;;;;;;;24.96;64.94;101278.03;5051923;28;19920;-85
2022/06/28 04:00:02;;;;;;;;;;;;;;;25.08;64.40;101282.53;5036116;28;20782;-85
2022/06/28 04:02:28;;;;;;;7.32;4.82;;;;;;;24.64;64.83;101227.19;5035174;28;19913;-85
2022/06/28 04:04:53;;;;;;;;;;;;;;;25.10;64.58;101286.06;5054918;28;20032;-86
2022/06/28 04:07:19;;;;;;;5.78;5.03;;;;;;;25.07;64.81;101283.41;5036235;28;19919;-85
2022/06/28 04:09:44;;;;;;;;;;;;;;;25.18;64.43;101286.97;5047567;28;20029;-86
2022/06/28 04:12:10;;;;;;;6.63;4.90;;;;;;;24.88;64.61;101244.16;5034368;28;19943;-86
2022/06/28 04:14:35;;;;;;;;;;;;;;;25.15;64.83;101294.13;5045202;28;20074;-86
2022/06/28 04:17:02;;;;;;;5.85;5.25;;;;;;;25.07;64.91;101288.75;5034629;28;19923;-85
2022/06/28 04:19:28;;;;;;;6.95;5.20;;;;;;;24.86;64.61;101260.19;5018492;28;20435;-85
2022/06/28 04:21:53;;;;;;;;;;;;;;;25.19;64.77;101304.81;5050316;28;20031;-85
2022/06/28 04:24:19;;;;;;;7.35;5.00;;;;;;;24.95;64.58;101278.91;5014581;28;19949;-87
2022/06/28 04:26:44;;;;;;;;;;;;;;;25.14;64.87;101301.22;5018408;28;20119;-85
2022/06/28 04:29:10;;;;;;;6.70;5.00;;;;;;;24.75;64.95;101259.28;5034242;28;20007;-87
2022/06/28 04:31:35;;;;;;;;;;;;;;;25.09;65.06;101297.66;5033850;28;20411;-86
2022/06/28 04:34:02;;;;;;;8.63;5.35;;;;;;;24.87;64.61;101253.06;5034780;28;19927;-85
2022/06/28 04:36:29;;;;;;;6.18;4.78;;;;;;;24.55;64.95;101220.03;5052939;28;20056;-85
2022/06/28 04:38:55;;;;;;;7.82;4.82;;;;;;;24.63;65.22;101252.09;5033522;28;20554;-81
2022/06/28 04:41:24;;;;;;;;;;;;;;;25.07;64.90;101307.47;5051577;28;20055;-82
2022/06/28 04:43:56;;;;;;;6.25;4.55;;;;;;;25.02;64.31;101302.97;5051963;28;19920;-81
2022/06/28 04:46:21;;;;;;;7.15;5.00;;;;;;;24.94;65.34;101302.97;5033670;28;20033;-80
2022/06/28 04:48:47;;;;;;;;;;;;;;;24.98;65.08;101324.34;5051486;28;20043;-80
2022/06/28 04:51:13;;;;;;;7.07;4.78;;;;;;;24.90;65.37;101310.06;5028528;28;19936;-81
2022/06/28 04:53:42;;;;;;;;;;;;;;;25.05;64.64;101314.56;5029915;28;20397;-81
2022/06/28 04:56:08;;;;;;;6.13;4.93;;;;;;;24.99;65.16;101315.44;5049912;28;19923;-81
2022/06/28 04:58:34;;;;;;;5.55;4.90;;;;;;;25.11;65.09;101316.38;5032338;28;20117;-81
2022/06/28 05:01:00;;;;;;;;;;;;;;;25.07;64.38;101317.25;5048285;28;20112;-82
2022/06/28 05:03:29;;;;;;;6.50;4.80;;;;;;;25.02;65.05;101302.97;5051085;28;20394;-82
2022/06/28 05:05:55;;;;;;;6.13;4.78;;;;;;;25.08;64.81;101311.94;5032870;28;20045;-81
2022/06/28 05:08:21;;;;;;;5.75;4.78;;;;;;;25.07;64.24;101318.16;5050248;28;20028;-85
2022/06/28 05:10:46;;;;;;;;;;;;;;;24.97;65.12;101311.88;5039443;28;20029;-81
2022/06/28 05:13:12;;;;;;;5.53;4.85;;;;;;;25.00;64.92;101300.31;5044324;28;20530;-80
2022/06/28 05:15:37;;;;;;;;;;;;;;;25.11;64.75;101322.63;5051944;28;20473;-80
2022/06/28 05:18:03;;;;;;;5.68;5.00;;;;;;;24.95;64.58;101302.97;5051850;28;19966;-81
2022/06/28 05:20:29;;;;;;;;;;;;;;;25.03;64.92;101312.78;5034433;28;20056;-80
2022/06/28 05:22:54;;;;;;;8.68;5.38;;;;;;;25.02;64.72;101314.59;5033346;28;20027;-80
2022/06/28 05:25:20;;;;;;;;;;;;;;;24.99;64.86;101312.78;5048410;28;20033;-79
2022/06/28 05:27:46;;;;;;;6.22;4.75;;;;;;;24.80;65.31;101310.91;5050473;28;20011;-81
2022/06/28 05:30:11;;;;;;;;;;;;;;;24.75;65.43;101313.59;5051096;28;20028;-81
2022/06/28 05:32:37;;;;;;;5.20;4.57;;;;;;;24.71;65.47;101309.09;5048454;28;19964;-80
2022/06/28 05:35:03;;;;;;;;;;;;;;;24.86;65.15;101320.75;5033925;28;20044;-80
2022/06/28 05:37:28;;;;;;;6.50;4.97;;;;;;;24.89;64.98;101310.06;5033773;28;19916;-80
2022/06/28 05:39:54;;;;;;;;;;;;;;;24.84;65.21;101322.53;5037358;28;20024;-79
2022/06/28 05:42:20;;;;;;;5.55;4.75;;;;;;;24.82;65.17;101313.59;5050813;28;19935;-80
2022/06/28 05:44:45;;;;;;;;;;;;;;;24.98;65.29;101324.34;5050546;28;20017;-80
2022/06/28 05:47:11;;;;;;;5.18;4.70;;;;;;;24.96;64.88;101330.59;5050385;28;20017;-80
2022/06/28 05:49:37;;;;;;;;;;;;;;;25.03;64.85;101321.69;5050896;28;20048;-81
2022/06/28 05:52:02;;;;;;;5.50;4.75;;;;;;;24.76;65.38;101299.34;5030484;28;19916;-81
2022/06/28 05:54:28;;;;;;;;;;;;;;;24.85;65.23;101334.97;5051872;28;20024;-80
2022/06/28 05:56:53;;;;;;;5.80;5.00;;;;;;;24.76;65.30;101315.38;5038067;28;20437;-80
2022/06/28 05:59:19;;;;;;;;;;;;;;;24.89;65.27;101324.34;5016366;28;20068;-81
2022/06/28 06:01:44;;;;;;;7.63;4.60;;;;;;;24.82;65.14;101308.25;5052121;28;19909;-81
2022/06/28 06:04:10;;;;;;;;;;;;;;;24.86;65.09;101318.97;5048405;28;20029;-81
2022/06/28 06:06:35;;;;;;;8.95;4.75;;;;;;;24.78;65.09;101305.56;5051377;28;19966;-80
2022/06/28 06:09:01;;;;;;;;;;;;;;;24.79;65.33;101327.84;5033567;28;20075;-80
2022/06/28 06:11:27;;;;;;;5.55;4.80;;;;;;;24.65;65.33;101290.38;5037336;28;19912;-81
2022/06/28 06:13:52;;;;;;;;;;;;;;;24.79;65.01;101315.38;5034328;28;20031;-80
2022/06/28 06:16:18;;;;;;;6.15;4.30;;;;;;;24.79;65.21;101325.19;5051086;28;19912;-80
2022/06/28 06:18:43;;;;;;;;;;;;;;;24.70;65.01;101311.75;5052143;28;20115;-81
2022/06/28 06:21:09;;;;;;;7.78;4.57;;;;;;;24.69;65.19;101326.03;5051713;28;20376;-81
2022/06/28 06:23:34;;;;;;;;;;;;;;;24.77;64.94;101333.19;5034107;28;20112;-80
2022/06/28 06:26:01;;;;;;;7.25;4.32;;;;;;;24.62;65.17;101309.06;5051523;28;19908;-81
2022/06/28 06:28:27;;;;;;;6.82;4.30;;;;;;;24.63;65.08;101326.00;5051566;28;20392;-81
2022/06/28 06:30:53;;;;;;;;;;;;;;;24.69;65.44;101316.22;5051776;28;20036;-81
2022/06/28 06:33:19;;;;;;;6.05;4.05;;;;;;;24.69;65.33;101318.88;5033542;28;19908;-81
2022/06/28 06:35:44;;;;;;;;;;;;;;;24.71;65.15;101322.47;5040686;28;20049;-82
2022/06/28 06:38:10;;;;;;;6.68;4.28;;;;;;;24.78;65.20;101323.38;5033269;28;20453;-80
2022/06/28 06:40:36;;;;;;;;;;;;;;;24.79;64.95;101320.72;5051724;28;20020;-81
2022/06/28 06:43:02;;;;;;;6.72;4.00;;;;;;;24.74;65.17;101326.91;5033652;28;19920;-80
2022/06/28 06:45:28;;;;;;;;;;;;;;;24.67;65.07;101330.47;5033851;28;20518;-80
2022/06/28 06:47:53;;;;;;;5.55;3.97;;;;;;;24.66;65.01;101331.31;5051500;28;19912;-80
2022/06/28 06:50:20;;;;;;;;;;;;;;;24.69;64.90;101336.69;5033539;28;20025;-81
2022/06/28 06:52:45;;;;;;;6.43;4.43;;;;;;;24.71;65.35;101326.91;5044172;28;19908;-81
2022/06/28 06:55:11;;;;;;;;;;;;;;;24.79;65.12;101341.22;5051398;28;20066;-81
2022/06/28 06:57:37;;;;;;;6.72;4.03;;;;;;;24.79;64.91;101327.84;5050726;28;19940;-80
2022/06/28 07:00:03;;;;;;;;;;;;;;;24.88;65.06;101345.69;5051518;28;20067;-80
2022/06/28 07:02:29;;;;;;;7.97;4.43;;;;;;;24.80;64.94;101342.97;5033007;28;19913;-81
2022/06/28 07:04:55;;;;;;;;;;;;;;;24.82;65.01;101348.34;5038702;28;20072;-81
2022/06/28 07:07:20;;;;;;;4.32;3.88;;;;;;;24.67;65.07;101328.69;5043049;28;20388;-80
2022/06/28 07:09:46;;;;;;;;;;;;;;;24.85;65.23;101357.28;5044666;28;20083;-80
2022/06/28 07:12:11;;;;;;;6.50;3.70;;;;;;;24.88;64.95;101343.91;5043792;28;19913;-79
2022/06/28 07:14:37;;;;;;;;;;;;;;;24.93;64.72;101344.84;5037405;28;20048;-81
2022/06/28 07:17:02;;;;;;;6.97;4.00;;;;;;;24.80;65.02;101329.63;5054231;28;19958;-79
2022/06/28 07:19:28;;;;;;;;;;;;;;;24.96;64.97;101362.66;5043709;28;20057;-81
2022/06/28 07:21:53;;;;;;;9.70;4.13;;;;;;;24.81;65.09;101349.22;5037390;28;20051;-81
2022/06/28 07:24:19;;;;;;;;;;;;;;;24.87;64.98;101355.50;5051925;28;20530;-80
2022/06/28 07:26:44;;;;;;;5.78;3.92;;;;;;;24.82;64.77;101362.56;5051432;28;20397;-79
2022/06/28 07:29:10;;;;;;;;;;;;;;;24.83;65.21;101361.72;5025435;28;20029;-81
2022/06/28 07:31:36;;;;;;;5.32;3.92;;;;;;;24.90;65.12;101367.97;5053359;28;20380;-81
2022/06/28 07:34:01;;;;;;;;;;;;;;;24.89;65.03;101367.09;5055570;28;20044;-82
2022/06/28 07:36:28;;;;;;;5.93;3.92;;;;;;;24.92;64.84;101366.19;5054352;28;19999;-81
2022/06/28 07:38:54;;;;;;;8.25;4.35;;;;;;;24.82;64.48;101348.34;5054851;28;20035;-81
2022/06/28 07:41:20;;;;;;;;;;;;;;;24.88;64.69;101370.63;5054624;28;20025;-79
2022/06/28 07:43:46;;;;;;;4.35;3.88;;;;;;;24.97;64.99;101359.09;5023869;28;20330;-81
2022/06/28 07:46:11;;;;;;;;;;;;;;;24.89;64.45;101368.84;5054965;28;20025;-81
2022/06/28 07:48:37;;;;;;;6.63;3.65;;;;;;;24.92;64.00;101372.44;5054652;28;19915;-81
2022/06/28 07:53:46;;;;;;;4.97;3.63;;;;;;;25.04;63.97;101370.69;5053612;28;19967;-81
2022/06/28 07:56:12;;;;;;;;;;;;;;;25.08;64.42;101368.06;5050250;28;20026;-81
2022/06/28 07:58:39;;;;;;;6.50;4.30;;;;;;;25.07;64.04;101368.03;5051270;28;20394;-82
2022/06/28 08:01:07;;;;;;;5.97;3.92;;;;;;;24.99;64.41;101368.00;5036367;28;20082;-81
2022/06/28 08:03:33;;;;;;;6.10;4.30;;;;;;;24.96;64.20;101366.22;5054211;28;20491;-81
2022/06/28 08:05:58;;;;;;;;;;;;;;;25.01;63.79;101374.25;5053978;28;20028;-80
2022/06/28 08:08:24;;;;;;;5.97;4.15;;;;;;;24.93;63.66;101366.22;5041486;28;19909;-81
2022/06/28 08:10:49;;;;;;;;;;;;;;;24.89;63.01;101367.09;5040131;28;20540;-81
2022/06/28 08:13:16;;;;;;;7.00;4.00;;;;;;;24.86;63.70;101350.13;5054361;28;20388;-81
2022/06/28 08:15:42;;;;;;;4.65;3.60;;;;;;;24.95;62.97;101375.09;5054251;28;20047;-80
2022/06/28 08:18:08;;;;;;;4.43;3.78;;;;;;;24.98;62.90;101368.91;5054202;28;20029;-80
2022/06/28 08:20:33;;;;;;;;;;;;;;;24.99;63.09;101360.88;5054546;28;20029;-81
2022/06/28 08:22:59;;;;;;;5.80;3.75;;;;;;;24.98;63.37;101364.44;5053769;28;19916;-81
2022/06/28 08:25:24;;;;;;;;;;;;;;;25.05;63.06;101354.66;5054689;28;20028;-81
2022/06/28 08:27:50;;;;;;;6.35;3.63;;;;;;;25.11;63.02;101362.72;5022738;28;19909;-81
2022/06/28 08:30:15;;;;;;;;;;;;;;;24.95;62.25;101358.19;5054350;28;20064;-82
2022/06/28 08:32:41;;;;;;;5.40;3.50;;;;;;;24.96;63.01;101355.53;5053695;28;19920;-81
2022/06/28 08:35:07;;;;;;;;;;;;;;;25.03;62.66;101358.22;5053338;28;20045;-81
2022/06/28 08:37:32;;;;;;;4.10;3.67;;;;;;;24.86;63.10;101334.09;5053493;28;19963;-81
2022/06/28 08:39:58;;;;;;;;;;;;;;;25.06;63.35;101353.78;5052467;28;20063;-81
2022/06/28 08:42:28;;;;;;;5.65;3.83;;;;;;;25.05;63.24;101340.41;5053630;28;20360;-80
2022/06/28 08:44:54;;;;;;;4.10;3.70;;;;;;;25.10;62.64;101344.88;5039415;28;20029;-81
2022/06/28 08:47:20;;;;;;;;;;;;;;;25.11;63.53;101359.16;5036012;28;20499;-81
2022/06/28 08:50:01;;;;;;;5.75;3.58;;;;;;;24.91;62.72;101316.31;5035684;28;19951;-80
2022/06/28 08:52:27;;;;;;;5.90;3.60;;;;;;;25.02;62.65;101324.34;5018860;28;20043;-81
2022/06/28 08:54:56;;;;;;;;;;;;;;;25.19;62.81;101352.06;5046955;28;20037;-80
2022/06/28 08:57:22;;;;;;;6.25;3.60;;;;;;;25.03;62.93;101327.03;5035587;28;19980;-81
2022/06/28 08:59:48;;;;;;;4.63;3.95;;;;;;;25.08;62.94;101327.97;5018382;28;20028;-80
2022/06/28 09:02:15;;;;;;;8.52;3.95;;;;;;;25.13;62.41;101307.47;5035592;28;20028;-81
2022/06/28 09:04:45;;;;;;;4.78;3.92;;;;;;;25.24;62.51;101331.59;5031147;28;20021;-81
2022/06/28 09:07:11;;;;;;;4.20;3.80;;;;;;;25.12;62.23;101311.03;5049039;28;20025;-82
2022/06/28 09:09:36;;;;;;;;;;;;;;;25.19;63.23;101338.69;5030020;28;20029;-80
2022/06/28 09:12:02;;;;;;;6.05;3.72;;;;;;;25.12;62.74;101319.03;5044691;28;19909;-81
2022/06/28 09:14:29;;;;;;;;;;;;;;;25.16;62.64;101330.66;5034958;28;20411;-81
2022/06/28 09:16:56;;;;;;;6.18;3.80;;;;;;;24.97;63.21;101301.19;5025533;28;19909;-82
2022/06/28 09:19:35;;;;;;;5.07;3.88;;;;;;;24.91;63.02;101270.88;5047976;28;20029;-81
2022/06/28 09:22:03;;;;;;;4.47;3.80;;;;;;;25.24;63.06;101325.38;5052740;28;20033;-81
2022/06/28 09:24:29;;;;;;;5.72;3.90;;;;;;;25.29;63.20;101318.22;5034493;28;20048;-82
2022/06/28 09:26:56;;;;;;;;;;;;;;;25.41;63.28;101320.03;5053120;28;20434;-81
2022/06/28 09:29:22;;;;;;;6.60;4.00;;;;;;;25.28;62.72;101317.34;5034541;28;20383;-81
2022/06/28 09:31:47;;;;;;;;;;;;;;;25.37;63.03;101316.47;5052883;28;20074;-81
2022/06/28 09:34:13;;;;;;;4.70;3.70;;;;;;;25.30;63.42;101320.91;5015020;28;19932;-81
2022/06/28 09:36:58;;;;;;;5.78;4.10;;;;;;;25.41;63.30;101309.34;5029110;28;20646;-81
2022/06/28 09:39:28;;;;;;;6.32;4.03;;;;;;;25.01;63.01;101251.31;5037665;28;20025;-81
2022/06/28 09:41:56;;;;;;;4.05;3.65;;;;;;;25.37;63.20;101297.75;5049700;28;20052;-80
2022/06/28 09:44:28;;;;;;;5.47;3.92;;;;;;;25.26;63.63;101291.50;5051785;28;20029;-81
2022/06/28 09:46:58;;;;;;;7.80;3.88;;;;;;;25.32;63.53;101310.22;5014106;28;20090;-82
2022/06/28 09:49:32;;;;;;;7.28;4.20;;;;;;;25.31;63.08;101308.44;5040199;28;20066;-81
2022/06/28 09:51:59;;;;;;;5.50;3.80;;;;;;;25.33;63.13;101309.31;5038115;28;20032;-81
2022/06/28 09:54:29;;;;;;;6.10;3.85;;;;;;;25.23;62.85;101294.16;5032465;28;20108;-81
2022/06/28 09:56:56;;;;;;;5.57;3.95;;;;;;;25.43;63.09;101302.22;5024422;28;20112;-81
2022/06/28 09:59:24;;;;;;;6.95;4.22;;;;;;;25.19;62.90;101266.50;5009922;28;20056;-81
2022/06/28 10:01:52;;;;;;;5.80;3.97;;;;;;;25.40;62.94;101289.75;5050999;28;20059;-81
2022/06/28 10:04:19;;;;;;;5.65;4.07;;;;;;;25.30;63.19;101272.78;5033586;28;20515;-81
2022/06/28 10:06:45;;;;;;;5.55;3.65;;;;;;;25.47;63.15;101287.97;5033561;28;20021;-81
2022/06/28 10:09:11;;;;;;;4.63;3.92;;;;;;;25.44;63.41;101294.19;5042583;28;20040;-80
2022/06/28 10:17:59;;;;;;;6.45;4.43;;;;;;;25.50;63.04;101283.50;5043600;28;20518;-81
2022/06/28 10:20:30;;;;;;;6.88;4.05;;;;;;;25.54;63.25;101276.38;5016893;28;20041;-80
2022/06/28 10:23:27;;;;;;;8.10;4.55;;;;;;;25.46;62.88;101280.81;5050059;28;20053;-81
2022/06/28 10:26:02;;;;;;;4.35;3.95;;;;;;;25.50;63.10;101274.59;5044837;28;20052;-80
2022/06/28 10:28:40;;;;;;;6.47;4.25;;;;;;;25.47;63.28;101271.94;5038026;28;20028;-81
2022/06/28 10:31:21;;;;;;;6.85;4.47;;;;;;;25.54;62.84;101279.94;5028059;28;20112;-81
2022/06/28 10:33:52;;;;;;;6.80;4.50;;;;;;;25.29;63.25;101225.53;5039074;28;20033;-81
2022/06/28 10:36:20;;;;;;;9.07;4.25;;;;;;;25.30;63.28;101223.78;5036477;28;20052;-80
2022/06/28 10:39:09;;;;;;;5.00;4.07;;;;;;;25.60;62.98;101263.88;5013057;28;20488;-81
2022/06/28 10:41:37;;;;;;;6.30;4.35;;;;;;;25.64;63.36;101253.22;4979011;28;20049;-79
2022/06/28 10:44:26;;;;;;;7.28;4.35;;;;;;;25.64;63.10;101255.88;5031486;28;20032;-79
2022/06/28 10:47:13;;;;;;;5.90;4.13;;;;;;;25.64;63.10;101250.53;5016058;28;20025;-81
2022/06/28 10:49:44;;;;;;;5.03;4.30;;;;;;;25.62;62.98;101255.88;5026199;28;20033;-80
2022/06/28 10:52:26;;;;;;;4.78;4.28;;;;;;;25.64;63.20;101250.53;5024398;28;20021;-79
2022/06/28 10:54:52;;;;;;;6.38;4.32;;;;;;;25.68;63.23;101260.34;5025226;28;20037;-81
2022/06/28 10:57:33;;;;;;;;;;;;;;;25.71;63.13;101263.00;5031197;28;20028;-80
2022/06/28 11:00:05;;;;;;;6.22;4.00;;;;;;;25.47;63.53;101230.03;5028272;28;19914;-80
2022/06/28 11:02:51;;;;;;;4.65;4.07;;;;;;;25.67;63.77;101253.19;5012015;28;20078;-80
2022/06/28 11:05:23;;;;;;;5.57;3.85;;;;;;;25.67;63.58;101247.84;5025733;28;20108;-80
2022/06/28 11:08:00;;;;;;;4.57;4.05;;;;;;;25.64;63.54;101245.19;5029506;28;20534;-80
2022/06/28 11:10:27;;;;;;;5.18;3.60;;;;;;;25.56;63.45;101238.03;5024733;28;20025;-82
2022/06/28 11:12:52;;;;;;;5.35;4.15;;;;;;;25.70;63.84;101247.84;5031298;28;20431;-80
2022/06/28 11:15:27;;;;;;;;;;;;;;;25.73;63.34;101254.06;5010473;28;20029;-80
2022/06/28 11:17:54;;;;;;;4.90;4.15;;;;;;;25.57;63.67;101221.09;5031133;28;20417;-80
2022/06/28 11:20:30;;;;;;;4.28;3.83;;;;;;;25.73;63.76;101247.84;5030727;28;20041;-81
2022/06/28 11:22:56;;;;;;;4.37;3.97;;;;;;;25.73;63.92;101243.38;5027815;28;20021;-81
2022/06/28 11:25:24;;;;;;;5.28;4.18;;;;;;;25.73;63.55;101240.69;5013719;28;20488;-80
2022/06/28 11:27:53;;;;;;;4.30;3.90;;;;;;;25.74;63.59;101234.47;5023214;28;20026;-80
2022/06/28 11:30:23;;;;;;;4.47;4.07;;;;;;;25.71;63.57;101223.75;5031171;28;20400;-81
2022/06/28 11:32:53;;;;;;;7.93;4.35;;;;;;;25.43;63.67;101180.09;5027868;28;20044;-81
2022/06/28 11:35:29;;;;;;;4.15;3.63;;;;;;;25.69;64.05;101214.84;5038649;28;20045;-81
2022/06/28 11:37:57;;;;;;;5.30;4.03;;;;;;;25.77;64.10;101233.56;5032116;28;20111;-80
2022/06/28 11:40:24;;;;;;;4.82;3.80;;;;;;;25.70;63.76;101219.31;5050341;28;20147;-81
2022/06/28 11:43:04;;;;;;;4.93;4.35;;;;;;;25.78;63.91;101241.59;5050232;28;20032;-81
2022/06/28 11:45:41;;;;;;;4.80;4.20;;;;;;;25.56;64.17;101199.72;5042318;28;20454;-80
2022/06/28 11:48:12;;;;;;;5.05;4.07;;;;;;;25.67;63.64;101202.38;5032195;28;20079;-81
2022/06/28 11:50:53;;;;;;;4.95;3.70;;;;;;;25.84;63.70;101221.94;5049564;28;20029;-81
2022/06/28 11:53:20;;;;;;;5.65;4.03;;;;;;;25.69;63.70;101188.09;5028188;28;20028;-81
2022/06/28 11:55:48;;;;;;;5.10;4.30;;;;;;;25.78;63.89;101219.28;5049679;28;20021;-81
2022/06/28 11:58:38;;;;;;;6.07;4.55;;;;;;;25.82;63.80;101222.84;5030182;28;20024;-81
2022/06/28 12:01:26;;;;;;;5.05;3.97;;;;;;;25.53;64.16;101181.88;5032563;28;20480;-80
2022/06/28 12:03:59;;;;;;;6.15;3.88;;;;;;;25.84;64.09;101215.72;5040895;28;20078;-81